createdAt,value
2019-05-22T00:00:55.212Z,20.73
2019-05-22T00:03:25.948Z,15.70
2019-05-22T00:05:55.548Z,12.27
2019-05-22T00:08:23.965Z,17.90
2019-05-22T00:10:52.541Z,14.93
2019-05-22T00:13:21.188Z,14.47
2019-05-22T00:15:50.485Z,13.33
2019-05-22T00:18:19.067Z,12.00
2019-05-22T00:20:47.567Z,13.27
2019-05-22T00:23:15.967Z,22.60
2019-05-22T00:25:44.678Z,20.93
2019-05-22T00:28:13.164Z,16.60
2019-05-22T00:30:43.287Z,14.37
2019-05-22T00:33:11.806Z,16.70
2019-05-22T00:35:40.307Z,19.00
2019-05-22T00:38:08.751Z,22.00
2019-05-22T00:40:41.438Z,12.43
2019-05-22T00:43:13.983Z,15.73
2019-05-22T00:45:38.189Z,14.60
2019-05-22T00:48:06.682Z,13.17
2019-05-22T00:50:43.055Z,17.00
2019-05-22T00:53:16.937Z,22.50
2019-05-22T00:55:49.462Z,25.63
2019-05-22T00:58:33.204Z,18.83
2019-05-22T01:01:02.405Z,18.70
2019-05-22T01:03:32.731Z,16.27
2019-05-22T01:06:01.289Z,18.57
2019-05-22T01:08:29.933Z,15.30
2019-05-22T01:10:58.378Z,22.07
2019-05-22T01:13:31.013Z,20.60
2019-05-22T01:15:59.361Z,19.80
2019-05-22T01:18:27.809Z,18.47
2019-05-22T01:20:57.621Z,14.70
2019-05-22T01:23:25.952Z,15.83
2019-05-22T01:25:54.297Z,21.80
2019-05-22T01:28:23.113Z,18.77
2019-05-22T01:30:53.904Z,19.80
2019-05-22T01:33:25.080Z,16.67
2019-05-22T01:35:59.464Z,12.53
2019-05-22T01:38:27.953Z,20.47
2019-05-22T01:40:58.947Z,15.60
2019-05-22T01:43:27.367Z,20.70
2019-05-22T01:45:54.954Z,20.67
2019-05-22T01:48:26.385Z,21.83
2019-05-22T01:50:56.125Z,25.10
2019-05-22T01:53:27.856Z,22.93
2019-05-22T01:55:59.171Z,21.97
2019-05-22T01:58:28.699Z,23.07
2019-05-22T02:00:57.110Z,19.20
2019-05-22T02:03:26.022Z,16.30
2019-05-22T02:05:54.478Z,18.87
2019-05-22T02:08:23.492Z,27.67
2019-05-22T02:10:51.983Z,23.57
2019-05-22T02:13:25.113Z,23.47
2019-05-22T02:15:54.717Z,21.20
2019-05-22T02:18:23.050Z,36.33
2019-05-22T02:20:51.408Z,18.03
2019-05-22T02:23:19.811Z,21.37
2019-05-22T02:25:48.358Z,23.17
2019-05-22T02:28:17.066Z,17.57
2019-05-22T02:30:45.620Z,22.80
2019-05-22T02:33:14.646Z,18.80
2019-05-22T02:35:43.032Z,28.17
2019-05-22T02:38:11.552Z,25.93
2019-05-22T02:40:46.808Z,23.10
2019-05-22T02:43:17.026Z,18.03
2019-05-22T02:45:45.410Z,22.67
2019-05-22T02:48:14.596Z,32.00
2019-05-22T02:50:43.386Z,25.10
2019-05-22T02:53:11.824Z,23.53
2019-05-22T02:55:40.308Z,21.13
2019-05-22T02:58:09.799Z,23.53
2019-05-22T03:00:46.277Z,21.70
2019-05-22T03:03:14.981Z,28.93
2019-05-22T03:05:43.435Z,22.00
2019-05-22T03:08:11.886Z,19.50
2019-05-22T03:10:40.490Z,27.67
2019-05-22T03:13:09.104Z,24.43
2019-05-22T03:15:37.450Z,24.80
2019-05-22T03:18:05.811Z,24.47
2019-05-22T03:20:34.216Z,24.23
2019-05-22T03:23:34.094Z,22.83
2019-05-22T03:26:02.523Z,27.47
2019-05-22T03:28:30.952Z,23.50
2019-05-22T03:30:59.718Z,27.97
2019-05-22T03:33:28.092Z,30.57
2019-05-22T03:36:04.323Z,23.77
2019-05-22T03:38:32.702Z,20.33
2019-05-22T03:41:01.132Z,27.03
2019-05-22T03:43:29.815Z,22.70
2019-05-22T03:45:58.302Z,25.23
2019-05-22T03:48:26.731Z,30.00
2019-05-22T03:50:56.968Z,23.57
2019-05-22T03:53:25.359Z,22.53
2019-05-22T03:55:53.782Z,34.73
2019-05-22T03:58:22.294Z,26.63
2019-05-22T04:00:51.209Z,19.77
2019-05-22T04:03:19.678Z,25.43
2019-05-22T04:05:48.077Z,28.50
2019-05-22T04:08:16.916Z,20.87
2019-05-22T04:10:54.287Z,23.53
2019-05-22T04:13:22.649Z,31.50
2019-05-22T04:15:51.048Z,29.00
2019-05-22T04:18:22.836Z,20.87
2019-05-22T04:20:47.970Z,25.67
2019-05-22T04:23:16.344Z,21.47
2019-05-22T04:25:44.963Z,18.90
2019-05-22T04:28:13.378Z,18.53
2019-05-22T04:30:41.758Z,16.57
2019-05-22T04:33:10.299Z,29.50
2019-05-22T04:35:38.789Z,19.80
2019-05-22T04:38:07.260Z,22.13
2019-05-22T04:40:50.566Z,19.77
2019-05-22T04:43:21.186Z,19.07
2019-05-22T04:45:49.748Z,18.80
2019-05-22T04:48:18.449Z,15.33
2019-05-22T04:50:46.908Z,25.67
2019-05-22T04:53:15.573Z,18.17
2019-05-22T04:55:44.037Z,20.00
2019-05-22T04:58:12.514Z,20.70
2019-05-22T05:00:41.241Z,13.13
2019-05-22T05:03:09.785Z,18.43
2019-05-22T05:05:40.182Z,16.87
2019-05-22T05:08:08.554Z,19.53
2019-05-22T05:10:37.106Z,25.97
2019-05-22T05:13:05.618Z,16.80
2019-05-22T05:15:37.153Z,17.60
2019-05-22T05:18:02.980Z,14.67
2019-05-22T05:20:31.348Z,14.00
2019-05-22T05:22:59.700Z,15.83
2019-05-22T05:25:28.560Z,15.03
2019-05-22T05:27:56.965Z,13.30
2019-05-22T05:30:26.240Z,21.57
2019-05-22T05:32:54.743Z,14.13
2019-05-22T05:35:23.262Z,14.90
2019-05-22T05:37:51.811Z,15.97
2019-05-22T05:40:28.550Z,12.53
2019-05-22T05:42:57.478Z,25.73
2019-05-22T05:45:26.043Z,15.67
2019-05-22T05:47:54.725Z,17.90
2019-05-22T05:50:37.863Z,13.60
2019-05-22T05:52:51.776Z,11.20
2019-05-22T05:55:20.749Z,11.30
2019-05-22T05:58:24.124Z,13.20
2019-05-22T06:00:54.877Z,16.40
2019-05-22T06:03:30.476Z,15.13
2019-05-22T06:05:58.969Z,13.83
2019-05-22T06:08:27.372Z,18.27
2019-05-22T06:11:07.581Z,16.03
2019-05-22T06:13:35.980Z,13.03
2019-05-22T06:16:24.347Z,12.53
2019-05-22T06:18:52.754Z,14.37
2019-05-22T06:21:21.115Z,11.17
2019-05-22T06:24:00.707Z,10.57
2019-05-22T06:26:45.639Z,9.50
2019-05-22T06:29:14.415Z,9.00
2019-05-22T06:31:52.786Z,14.77
2019-05-22T06:34:21.380Z,12.40
2019-05-22T06:36:49.729Z,30.13
2019-05-22T06:39:18.167Z,10.53
2019-05-22T06:41:46.700Z,12.00
2019-05-22T06:44:27.753Z,13.80
2019-05-22T06:46:56.630Z,16.27
2019-05-22T06:49:36.402Z,12.00
2019-05-22T06:52:04.990Z,8.03
2019-05-22T06:54:33.350Z,13.17
2019-05-22T06:57:01.853Z,9.23
2019-05-22T06:59:30.393Z,11.30
2019-05-22T07:02:01.295Z,9.80
2019-05-22T07:04:27.920Z,12.77
2019-05-22T07:06:56.315Z,11.97
2019-05-22T07:09:24.996Z,11.73
2019-05-22T07:11:53.578Z,11.37
2019-05-22T07:14:22.622Z,7.90
2019-05-22T07:16:51.082Z,9.87
2019-05-22T07:19:20.022Z,17.27
2019-05-22T07:21:48.502Z,6.43
2019-05-22T07:24:16.923Z,10.43
2019-05-22T07:26:45.403Z,8.87
2019-05-22T07:29:13.901Z,10.43
2019-05-22T07:31:42.331Z,6.90
2019-05-22T07:34:10.681Z,11.63
2019-05-22T07:36:39.087Z,8.63
2019-05-22T07:39:07.559Z,8.67
2019-05-22T07:41:35.956Z,10.70
2019-05-22T07:44:04.713Z,12.57
2019-05-22T07:46:33.136Z,15.77
2019-05-22T07:49:01.552Z,8.30
2019-05-22T07:51:29.985Z,11.27
2019-05-22T07:53:58.352Z,9.60
2019-05-22T07:56:26.807Z,10.87
2019-05-22T07:58:58.889Z,16.83
2019-05-22T08:01:23.922Z,12.60
2019-05-22T08:03:52.423Z,12.90
2019-05-22T08:06:20.991Z,14.27
2019-05-22T08:08:49.402Z,8.63
2019-05-22T08:11:17.923Z,10.93
2019-05-22T08:13:46.444Z,14.00
2019-05-22T08:16:15.030Z,15.63
2019-05-22T08:18:43.406Z,9.90
2019-05-22T08:21:11.870Z,10.63
2019-05-22T08:23:40.237Z,8.00
2019-05-22T08:26:09.381Z,16.60
2019-05-22T08:28:37.774Z,17.87
2019-05-22T08:31:06.145Z,14.13
2019-05-22T08:33:35.020Z,8.00
2019-05-22T08:36:04.101Z,16.03
2019-05-22T08:38:33.232Z,11.13
2019-05-22T08:41:01.812Z,9.87
2019-05-22T08:43:30.400Z,10.13
2019-05-22T08:45:58.810Z,13.63
2019-05-22T08:48:27.235Z,12.43
2019-05-22T08:50:55.783Z,9.60
2019-05-22T08:53:24.163Z,8.80
2019-05-22T08:55:52.526Z,7.57
2019-05-22T08:58:21.126Z,14.57
2019-05-22T09:00:49.509Z,13.60
2019-05-22T09:03:17.915Z,22.03
2019-05-22T09:05:46.418Z,16.67
2019-05-22T09:08:14.724Z,12.13
2019-05-22T09:10:43.206Z,5.93
2019-05-22T09:13:11.856Z,11.13
2019-05-22T09:15:40.446Z,9.70
2019-05-22T09:18:08.950Z,8.93
2019-05-22T09:20:48.668Z,8.00
2019-05-22T09:23:05.917Z,17.40
2019-05-22T09:25:40.670Z,8.30
2019-05-22T09:28:09.058Z,14.20
2019-05-22T09:30:37.458Z,9.30
2019-05-22T09:33:06.092Z,9.43
2019-05-22T09:35:34.487Z,10.07
2019-05-22T09:38:02.838Z,6.07
2019-05-22T09:40:32.181Z,14.93
2019-05-22T09:43:01.007Z,13.50
2019-05-22T09:45:29.535Z,9.70
2019-05-22T09:47:58.389Z,11.00
2019-05-22T09:50:26.804Z,19.00
2019-05-22T09:52:58.028Z,4.83
2019-05-22T09:55:24.127Z,11.83
2019-05-22T09:57:52.758Z,6.33
2019-05-22T10:00:21.243Z,12.87
2019-05-22T10:02:49.674Z,14.57
2019-05-22T10:05:18.087Z,26.17
2019-05-22T10:07:59.582Z,11.67
2019-05-22T10:10:15.297Z,9.67
2019-05-22T10:12:43.665Z,10.57
2019-05-22T10:15:12.214Z,4.77
2019-05-22T10:17:41.203Z,16.83
2019-05-22T10:20:09.600Z,9.87
2019-05-22T10:22:38.044Z,5.97
2019-05-22T10:25:15.766Z,9.93
2019-05-22T10:27:35.101Z,13.80
2019-05-22T10:30:03.735Z,8.27
2019-05-22T10:32:32.744Z,8.55
2019-05-22T10:35:01.148Z,6.80
2019-05-22T10:37:29.668Z,7.93
2019-05-22T10:39:58.323Z,7.60
2019-05-22T10:42:26.756Z,16.27
2019-05-22T10:44:55.214Z,8.17
2019-05-22T10:47:23.800Z,7.60
2019-05-22T10:49:52.233Z,10.97
2019-05-22T10:52:20.655Z,14.67
2019-05-22T10:54:49.350Z,8.80
2019-05-22T10:57:17.702Z,14.87
2019-05-22T10:59:46.048Z,8.55
2019-05-22T11:02:14.652Z,9.33
2019-05-22T11:04:43.091Z,9.48
2019-05-22T11:07:12.558Z,10.90
2019-05-22T11:09:41.326Z,9.13
2019-05-22T11:12:10.024Z,10.67
2019-05-22T11:14:38.395Z,14.28
2019-05-22T11:17:08.007Z,5.27
2019-05-22T11:19:36.315Z,13.40
2019-05-22T11:22:04.882Z,21.53
2019-05-22T11:24:33.923Z,10.30
2019-05-22T11:27:02.380Z,12.10
2019-05-22T11:29:30.822Z,9.28
2019-05-22T11:31:59.329Z,9.93
2019-05-22T11:34:27.721Z,11.03
2019-05-22T11:36:56.247Z,18.97
2019-05-22T11:39:38.446Z,11.03
2019-05-22T11:41:53.181Z,8.03
2019-05-22T11:44:21.559Z,10.73
2019-05-22T11:46:50.014Z,9.40
2019-05-22T11:49:18.427Z,9.97
2019-05-22T11:51:46.837Z,7.57
2019-05-22T11:54:15.343Z,10.57
2019-05-22T11:56:43.734Z,13.10
2019-05-22T11:59:12.112Z,12.17
2019-05-22T12:01:40.563Z,7.73
2019-05-22T12:04:08.974Z,6.90
2019-05-22T12:06:37.394Z,11.30
2019-05-22T12:09:07.009Z,9.27
2019-05-22T12:11:35.339Z,18.23
2019-05-22T12:14:03.697Z,9.60
2019-05-22T12:16:32.415Z,9.60
2019-05-22T12:19:00.866Z,9.43
2019-05-22T12:21:29.283Z,9.07
2019-05-22T12:23:57.728Z,18.05
2019-05-22T12:26:26.075Z,8.10
2019-05-22T12:28:54.399Z,9.85
2019-05-22T12:31:22.892Z,11.67
2019-05-22T12:33:51.570Z,22.53
2019-05-22T12:36:20.050Z,10.97
2019-05-22T12:38:48.595Z,12.55
2019-05-22T12:41:17.103Z,7.20
2019-05-22T12:43:45.483Z,5.47
2019-05-22T12:46:13.902Z,8.30
2019-05-22T12:48:42.378Z,11.47
2019-05-22T12:51:10.777Z,12.68
2019-05-22T12:53:39.359Z,8.58
2019-05-22T12:56:07.739Z,8.47
2019-05-22T12:58:36.112Z,10.53
2019-05-22T13:01:04.600Z,12.67
2019-05-22T13:03:34.242Z,13.00
2019-05-22T13:06:03.425Z,9.70
2019-05-22T13:08:32.100Z,12.93
2019-05-22T13:11:00.489Z,12.73
2019-05-22T13:13:28.961Z,9.63
2019-05-22T13:15:58.387Z,7.15
2019-05-22T13:18:26.927Z,6.20
2019-05-22T13:20:55.346Z,10.55
2019-05-22T13:23:23.885Z,9.10
2019-05-22T13:25:52.416Z,15.10
2019-05-22T13:28:20.794Z,7.33
2019-05-22T13:30:50.399Z,10.47
2019-05-22T13:33:20.656Z,6.75
2019-05-22T13:35:49.071Z,7.12
2019-05-22T13:38:18.178Z,6.93
2019-05-22T13:40:46.639Z,14.10
2019-05-22T13:43:15.077Z,7.03
2019-05-22T13:45:44.054Z,15.33
2019-05-22T13:48:12.835Z,13.43
2019-05-22T13:50:41.273Z,14.03
2019-05-22T13:53:09.827Z,13.58
2019-05-22T13:55:38.192Z,5.67
2019-05-22T13:58:06.560Z,9.77
2019-05-22T14:00:35.550Z,20.95
2019-05-22T14:03:03.912Z,5.60
2019-05-22T14:05:32.332Z,13.50
2019-05-22T14:08:00.918Z,18.33
2019-05-22T14:10:29.399Z,9.83
2019-05-22T14:12:57.793Z,7.43
2019-05-22T14:15:26.597Z,11.40
2019-05-22T14:17:54.967Z,9.57
2019-05-22T14:20:23.358Z,10.20
2019-05-22T14:22:51.960Z,14.93
2019-05-22T14:25:20.303Z,8.83
2019-05-22T14:27:48.660Z,15.03
2019-05-22T14:30:17.440Z,11.83
2019-05-22T14:32:45.902Z,8.30
2019-05-22T14:35:14.619Z,10.47
2019-05-22T14:37:43.265Z,11.93
2019-05-22T14:40:11.642Z,19.90
2019-05-22T14:42:40.102Z,9.80
2019-05-22T14:45:08.690Z,12.37
2019-05-22T14:47:37.063Z,9.27
2019-05-22T14:50:05.477Z,12.13
2019-05-22T14:52:34.142Z,10.63
2019-05-22T14:55:03.095Z,10.77
2019-05-22T14:57:31.103Z,13.27
2019-05-22T14:59:59.708Z,10.43
2019-05-22T15:02:28.437Z,7.27
2019-05-22T15:04:56.949Z,14.83
2019-05-22T15:07:25.474Z,9.23
2019-05-22T15:09:53.819Z,13.13
2019-05-22T15:12:22.187Z,10.80
2019-05-22T15:14:50.784Z,8.20
2019-05-22T15:17:31.757Z,10.77
2019-05-22T15:19:48.302Z,8.40
2019-05-22T15:22:17.152Z,28.90
2019-05-22T15:24:45.538Z,9.60
2019-05-22T15:27:13.903Z,17.50
2019-05-22T15:29:42.388Z,14.03
2019-05-22T15:32:10.785Z,8.10
2019-05-22T15:34:39.230Z,11.93
2019-05-22T15:37:07.996Z,6.67
2019-05-22T15:39:36.431Z,12.50
2019-05-22T15:42:06.175Z,15.03
2019-05-22T15:44:34.436Z,33.50
2019-05-22T15:47:02.902Z,5.90
2019-05-22T15:49:31.304Z,14.37
2019-05-22T15:52:00.173Z,17.17
2019-05-22T15:54:28.696Z,12.73
2019-05-22T15:56:57.466Z,22.90
2019-05-22T15:59:26.012Z,9.37
2019-05-22T16:01:54.471Z,11.93
2019-05-22T16:04:22.861Z,10.03
2019-05-22T16:06:51.295Z,11.63
2019-05-22T16:09:19.725Z,14.10
2019-05-22T16:11:49.372Z,12.03
2019-05-22T16:14:18.296Z,9.87
2019-05-22T16:16:47.705Z,6.53
2019-05-22T16:19:16.103Z,10.40
2019-05-22T16:21:45.758Z,9.93
2019-05-22T16:24:14.198Z,17.00
2019-05-22T16:26:42.789Z,16.50
2019-05-22T16:29:11.755Z,10.60
2019-05-22T16:31:40.413Z,12.83
2019-05-22T16:34:08.850Z,9.03
2019-05-22T16:36:37.381Z,14.73
2019-05-22T16:39:06.961Z,7.33
2019-05-22T16:41:35.426Z,11.30
2019-05-22T16:44:04.084Z,8.00
2019-05-22T16:46:32.555Z,12.27
2019-05-22T16:49:00.968Z,10.53
2019-05-22T16:51:29.580Z,7.37
2019-05-22T16:54:01.410Z,10.93
2019-05-22T16:56:29.576Z,10.23
2019-05-22T16:58:58.099Z,15.00
2019-05-22T17:01:26.589Z,10.77
2019-05-22T17:03:55.625Z,9.00
2019-05-22T17:06:25.647Z,7.30
2019-05-22T17:08:54.777Z,9.20
2019-05-22T17:11:23.181Z,10.00
2019-05-22T17:13:51.708Z,10.27
2019-05-22T17:16:20.193Z,16.77
2019-05-22T17:18:48.947Z,9.27
2019-05-22T17:21:17.072Z,9.77
2019-05-22T17:23:45.574Z,9.03
2019-05-22T17:26:14.012Z,6.60
2019-05-22T17:28:42.557Z,10.30
2019-05-22T17:31:10.982Z,17.70
2019-05-22T17:33:39.454Z,20.87
2019-05-22T17:36:07.948Z,20.13
2019-05-22T17:38:36.342Z,17.57
2019-05-22T17:41:04.777Z,15.20
2019-05-22T17:43:33.374Z,10.60
2019-05-22T17:46:02.026Z,10.43
2019-05-22T17:48:30.621Z,9.77
2019-05-22T17:50:59.078Z,9.90
2019-05-22T17:53:27.506Z,7.97
2019-05-22T17:55:55.857Z,5.93
2019-05-22T17:58:27.444Z,9.80
2019-05-22T18:00:52.866Z,10.87
2019-05-22T18:03:21.258Z,13.00
2019-05-22T18:05:49.711Z,8.30
2019-05-22T18:08:18.288Z,6.83
2019-05-22T18:10:47.986Z,5.63
2019-05-22T18:13:16.770Z,9.13
2019-05-22T18:15:45.653Z,8.60
2019-05-22T18:18:14.226Z,7.37
2019-05-22T18:20:44.139Z,9.97
2019-05-22T18:23:11.225Z,7.13
2019-05-22T18:25:39.599Z,10.33
2019-05-22T18:28:08.340Z,7.43
2019-05-22T18:30:38.673Z,14.93
2019-05-22T18:33:07.063Z,10.47
2019-05-22T18:35:35.606Z,6.23
2019-05-22T18:38:05.005Z,7.20
2019-05-22T18:40:32.418Z,3.80
2019-05-22T18:43:00.889Z,9.00
2019-05-22T18:45:29.258Z,7.80
2019-05-22T18:47:57.698Z,7.70
2019-05-22T18:50:26.193Z,5.73
2019-05-22T18:52:54.506Z,4.40
2019-05-22T18:55:22.892Z,3.83
2019-05-22T18:57:51.559Z,5.80
2019-05-22T19:00:20.478Z,5.97
2019-05-22T19:02:48.857Z,6.37
2019-05-22T19:05:18.606Z,4.83
2019-05-22T19:07:47.050Z,4.80
2019-05-22T19:10:15.447Z,7.17
2019-05-22T19:12:43.924Z,5.27
2019-05-22T19:15:12.275Z,11.67
2019-05-22T19:17:40.772Z,12.57
2019-05-22T19:20:09.581Z,6.30
2019-05-22T19:22:37.882Z,10.43
2019-05-22T19:25:06.346Z,6.37
2019-05-22T19:27:34.858Z,8.97
2019-05-22T19:30:03.309Z,10.87
2019-05-22T19:32:31.712Z,8.03
2019-05-22T19:35:00.316Z,5.30
2019-05-22T19:37:28.721Z,6.07
2019-05-22T19:39:57.116Z,7.67
2019-05-22T19:42:25.586Z,10.23
2019-05-22T19:44:53.944Z,7.23
2019-05-22T19:47:22.330Z,6.40
2019-05-22T19:49:51.003Z,7.37
2019-05-22T19:52:22.605Z,8.77
2019-05-22T19:54:48.361Z,8.13
2019-05-22T19:57:16.843Z,9.63
2019-05-22T19:59:45.216Z,8.27
2019-05-22T20:02:13.562Z,6.77
2019-05-22T20:04:42.418Z,5.90
2019-05-22T20:07:10.907Z,12.70
2019-05-22T20:09:39.264Z,9.27
2019-05-22T20:12:07.762Z,6.63
2019-05-22T20:14:36.179Z,12.90
2019-05-22T20:17:04.536Z,7.07
2019-05-22T20:19:32.944Z,10.43
2019-05-22T20:22:01.322Z,17.73
2019-05-22T20:24:29.760Z,8.23
2019-05-22T20:26:58.420Z,11.10
2019-05-22T20:29:26.879Z,7.17
2019-05-22T20:31:55.263Z,8.60
2019-05-22T20:34:24.147Z,7.60
2019-05-22T20:36:52.925Z,5.53
2019-05-22T20:39:22.353Z,7.73
2019-05-22T20:41:51.052Z,7.63
2019-05-22T20:44:19.468Z,8.47
2019-05-22T20:46:47.884Z,9.97
2019-05-22T20:49:16.897Z,8.63
2019-05-22T20:51:45.240Z,7.43
2019-05-22T20:54:13.662Z,8.17
2019-05-22T20:56:42.707Z,8.33
2019-05-22T20:59:11.182Z,9.57
2019-05-22T21:01:39.565Z,10.97
2019-05-22T21:04:08.112Z,12.80
2019-05-22T21:06:39.215Z,7.00
2019-05-22T21:09:07.743Z,12.57
2019-05-22T21:11:36.596Z,9.03
2019-05-22T21:14:05.092Z,6.27
2019-05-22T21:16:33.506Z,9.93
2019-05-22T21:19:02.040Z,7.07
2019-05-22T21:21:30.387Z,7.03
2019-05-22T21:24:10.007Z,6.53
2019-05-22T21:26:27.639Z,7.83
2019-05-22T21:28:56.051Z,9.30
2019-05-22T21:31:24.432Z,9.67
2019-05-22T21:33:52.894Z,8.03
2019-05-22T21:36:21.250Z,6.90
2019-05-22T21:38:49.650Z,8.83
2019-05-22T21:41:18.543Z,7.40
2019-05-22T21:43:46.940Z,7.00
2019-05-22T21:46:15.329Z,7.50
2019-05-22T21:48:43.820Z,10.07
2019-05-22T21:51:12.256Z,5.97
2019-05-22T21:53:40.863Z,12.93
2019-05-22T21:56:09.450Z,8.00
2019-05-22T21:58:37.941Z,5.37
2019-05-22T22:01:21.649Z,7.13
2019-05-22T22:03:54.025Z,10.00
2019-05-22T22:06:22.486Z,10.83
2019-05-22T22:08:50.912Z,10.67
2019-05-22T22:11:19.288Z,6.30
2019-05-22T22:13:48.320Z,8.70
2019-05-22T22:16:16.718Z,5.70
2019-05-22T22:18:45.719Z,9.90
2019-05-22T22:21:14.576Z,5.17
2019-05-22T22:23:44.667Z,16.97
2019-05-22T22:26:25.227Z,6.83
2019-05-22T22:28:46.789Z,6.30
2019-05-22T22:31:16.155Z,15.60
2019-05-22T22:33:46.970Z,9.30
2019-05-22T22:36:15.831Z,7.60
2019-05-22T22:38:44.276Z,6.40
2019-05-22T22:41:12.836Z,6.77
2019-05-22T22:43:41.254Z,7.30
2019-05-22T22:46:17.190Z,7.70
2019-05-22T22:48:46.095Z,9.27
2019-05-22T22:51:14.491Z,6.67
2019-05-22T22:53:43.262Z,10.30
2019-05-22T22:56:11.943Z,8.23
2019-05-22T22:58:40.380Z,6.17
2019-05-22T23:01:09.266Z,7.30
2019-05-22T23:03:37.690Z,13.30
2019-05-22T23:06:06.079Z,9.60
2019-05-22T23:08:34.776Z,7.93
2019-05-22T23:11:03.247Z,7.70
2019-05-22T23:13:31.608Z,7.93
2019-05-22T23:16:00.101Z,6.43
2019-05-22T23:18:41.790Z,6.43
2019-05-22T23:21:10.344Z,7.87
2019-05-22T23:23:37.838Z,8.40
2019-05-22T23:26:06.244Z,9.90
2019-05-22T23:28:35.165Z,9.80
2019-05-22T23:31:03.583Z,8.03
2019-05-22T23:33:31.938Z,9.53
2019-05-22T23:36:00.527Z,13.43
2019-05-22T23:38:29.141Z,8.67
2019-05-22T23:40:57.491Z,13.90
2019-05-22T23:43:26.095Z,12.17
2019-05-22T23:45:54.442Z,8.87
2019-05-22T23:48:22.810Z,8.70
2019-05-22T23:50:51.354Z,8.83
2019-05-22T23:53:19.753Z,13.77
2019-05-22T23:55:48.134Z,8.47
2019-05-22T23:58:18.513Z,10.33
